sensor_id;sensor_type;location;lat;lon;timestamp;pressure;altitude;pressure_sealevel;temperature;humidity
56038;BME280;41907;47.848;9.000;2023-03-21T00:01:28;95950.34;;;7.46;100.00
56038;BME280;41907;47.848;9.000;2023-03-21T00:03:53;95948.28;;;7.43;100.00
56038;BME280;41907;47.848;9.000;2023-03-21T00:06:18;95950.75;;;7.34;100.00
56038;BME280;41907;47.848;9.000;2023-03-21T00:08:44;95951.06;;;7.28;100.00
56038;BME280;41907;47.848;9.000;2023-03-21T00:11:10;95951.94;;;7.23;100.00
56038;BME280;41907;47.848;9.000;2023-03-21T00:13:37;95952.53;;;7.15;100.00
56038;BME280;41907;47.848;9.000;2023-03-21T00:16:12;95950.09;;;7.19;100.00
56038;BME280;41907;47.848;9.000;2023-03-21T00:18:46;95942.38;;;7.22;100.00
56038;BME280;41907;47.848;9.000;2023-03-21T00:21:15;95938.38;;;7.25;100.00
56038;BME280;41907;47.848;9.000;2023-03-21T00:23:42;95940.69;;;7.31;100.00
56038;BME280;41907;47.848;9.000;2023-03-21T00:26:08;95947.13;;;7.49;100.00
56038;BME280;41907;47.848;9.000;2023-03-21T00:28:38;95939.34;;;7.58;100.00
56038;BME280;41907;47.848;9.000;2023-03-21T00:31:04;95933.03;;;7.54;100.00
56038;BME280;41907;47.848;9.000;2023-03-21T00:33:30;95934.16;;;7.47;100.00
56038;BME280;41907;47.848;9.000;2023-03-21T00:35:56;95927.84;;;7.43;100.00
56038;BME280;41907;47.848;9.000;2023-03-21T00:38:22;95936.00;;;7.47;100.00
56038;BME280;41907;47.848;9.000;2023-03-21T00:40:48;95930.59;;;7.33;100.00
56038;BME280;41907;47.848;9.000;2023-03-21T00:43:15;95927.25;;;7.46;100.00
56038;BME280;41907;47.848;9.000;2023-03-21T00:45:45;95925.41;;;7.47;100.00
56038;BME280;41907;47.848;9.000;2023-03-21T00:48:11;95921.06;;;7.32;100.00
56038;BME280;41907;47.848;9.000;2023-03-21T00:50:37;95925.44;;;7.18;100.00
56038;BME280;41907;47.848;9.000;2023-03-21T00:53:04;95930.06;;;7.07;100.00
56038;BME280;41907;47.848;9.000;2023-03-21T00:55:29;95922.25;;;6.92;100.00
56038;BME280;41907;47.848;9.000;2023-03-21T00:57:55;95926.72;;;6.97;100.00
56038;BME280;41907;47.848;9.000;2023-03-21T01:00:21;95922.31;;;6.82;100.00
56038;BME280;41907;47.848;9.000;2023-03-21T01:02:46;95921.19;;;6.93;100.00
56038;BME280;41907;47.848;9.000;2023-03-21T01:05:25;95914.25;;;6.97;100.00
56038;BME280;41907;47.848;9.000;2023-03-21T01:08:11;95916.41;;;6.90;100.00
56038;BME280;41907;47.848;9.000;2023-03-21T01:10:41;95919.72;;;6.77;100.00
56038;BME280;41907;47.848;9.000;2023-03-21T01:13:08;95918.19;;;6.71;100.00
56038;BME280;41907;47.848;9.000;2023-03-21T01:15:34;95920.28;;;6.74;100.00
56038;BME280;41907;47.848;9.000;2023-03-21T01:17:59;95915.84;;;6.69;100.00
56038;BME280;41907;47.848;9.000;2023-03-21T01:20:25;95918.78;;;6.63;100.00
56038;BME280;41907;47.848;9.000;2023-03-21T01:22:51;95920.69;;;6.57;100.00
56038;BME280;41907;47.848;9.000;2023-03-21T01:25:16;95913.06;;;6.51;100.00
56038;BME280;41907;47.848;9.000;2023-03-21T01:27:42;95911.22;;;6.46;100.00
56038;BME280;41907;47.848;9.000;2023-03-21T01:30:07;95918.66;;;6.44;100.00
56038;BME280;41907;47.848;9.000;2023-03-21T01:32:33;95916.84;;;6.40;100.00
56038;BME280;41907;47.848;9.000;2023-03-21T01:34:58;95910.78;;;6.34;100.00
56038;BME280;41907;47.848;9.000;2023-03-21T01:37:24;95912.94;;;6.32;100.00
56038;BME280;41907;47.848;9.000;2023-03-21T01:39:50;95914.81;;;6.26;100.00
56038;BME280;41907;47.848;9.000;2023-03-21T01:42:16;95912.69;;;6.23;100.00
56038;BME280;41907;47.848;9.000;2023-03-21T01:44:58;95905.06;;;6.17;100.00
56038;BME280;41907;47.848;9.000;2023-03-21T01:47:24;95917.31;;;6.13;100.00
56038;BME280;41907;47.848;9.000;2023-03-21T01:49:51;95918.47;;;5.91;100.00
56038;BME280;41907;47.848;9.000;2023-03-21T01:52:21;95903.44;;;5.72;100.00
56038;BME280;41907;47.848;9.000;2023-03-21T01:54:48;95916.22;;;5.54;100.00
56038;BME280;41907;47.848;9.000;2023-03-21T01:57:21;95904.56;;;5.60;100.00
56038;BME280;41907;47.848;9.000;2023-03-21T01:59:57;95911.63;;;5.80;100.00
56038;BME280;41907;47.848;9.000;2023-03-21T02:02:28;95913.41;;;5.95;100.00
56038;BME280;41907;47.848;9.000;2023-03-21T02:04:56;95905.41;;;6.05;100.00
56038;BME280;41907;47.848;9.000;2023-03-21T02:07:31;95898.50;;;6.09;100.00
56038;BME280;41907;47.848;9.000;2023-03-21T02:10:00;95886.59;;;6.12;100.00
56038;BME280;41907;47.848;9.000;2023-03-21T02:12:29;95892.69;;;6.07;100.00
56038;BME280;41907;47.848;9.000;2023-03-21T02:14:56;95891.63;;;6.08;100.00
56038;BME280;41907;47.848;9.000;2023-03-21T02:17:49;95879.72;;;6.11;100.00
56038;BME280;41907;47.848;9.000;2023-03-21T02:21:03;95879.97;;;6.09;100.00
56038;BME280;41907;47.848;9.000;2023-03-21T02:29:27;95879.31;;;5.88;100.00
56038;BME280;41907;47.848;9.000;2023-03-21T02:37:41;95874.22;;;5.43;100.00
56038;BME280;41907;47.848;9.000;2023-03-21T02:40:28;95871.81;;;5.46;100.00
56038;BME280;41907;47.848;9.000;2023-03-21T02:45:49;95863.53;;;5.63;100.00
56038;BME280;41907;47.848;9.000;2023-03-21T02:48:31;95859.25;;;5.72;100.00
56038;BME280;41907;47.848;9.000;2023-03-21T02:51:00;95861.59;;;5.84;100.00
56038;BME280;41907;47.848;9.000;2023-03-21T02:53:30;95866.06;;;5.88;100.00
56038;BME280;41907;47.848;9.000;2023-03-21T02:55:58;95862.66;;;5.83;100.00
56038;BME280;41907;47.848;9.000;2023-03-21T02:58:26;95865.94;;;5.59;100.00
56038;BME280;41907;47.848;9.000;2023-03-21T03:00:53;95871.47;;;5.63;100.00
56038;BME280;41907;47.848;9.000;2023-03-21T03:03:22;95867.50;;;5.60;100.00
56038;BME280;41907;47.848;9.000;2023-03-21T03:05:51;95857.25;;;5.54;100.00
56038;BME280;41907;47.848;9.000;2023-03-21T03:13:56;95869.50;;;5.30;100.00
56038;BME280;41907;47.848;9.000;2023-03-21T03:19:03;95869.19;;;5.46;100.00
56038;BME280;41907;47.848;9.000;2023-03-21T03:21:39;95863.53;;;5.63;100.00
56038;BME280;41907;47.848;9.000;2023-03-21T03:24:11;95862.97;;;5.71;100.00
56038;BME280;41907;47.848;9.000;2023-03-21T03:26:40;95861.69;;;5.58;100.00
56038;BME280;41907;47.848;9.000;2023-03-21T03:29:13;95856.41;;;5.64;100.00
56038;BME280;41907;47.848;9.000;2023-03-21T03:31:45;95851.09;;;5.64;100.00
56038;BME280;41907;47.848;9.000;2023-03-21T03:34:18;95856.50;;;5.38;100.00
56038;BME280;41907;47.848;9.000;2023-03-21T03:36:47;95855.47;;;5.34;100.00
56038;BME280;41907;47.848;9.000;2023-03-21T03:39:20;95856.00;;;5.31;100.00
56038;BME280;41907;47.848;9.000;2023-03-21T03:42:04;95852.34;;;5.22;100.00
56038;BME280;41907;47.848;9.000;2023-03-21T03:44:30;95854.75;;;5.13;100.00
56038;BME280;41907;47.848;9.000;2023-03-21T03:47:03;95857.41;;;5.18;100.00
56038;BME280;41907;47.848;9.000;2023-03-21T03:49:36;95849.19;;;5.15;100.00
56038;BME280;41907;47.848;9.000;2023-03-21T03:52:29;95848.09;;;5.21;100.00
56038;BME280;41907;47.848;9.000;2023-03-21T03:54:53;95841.75;;;5.27;100.00
56038;BME280;41907;47.848;9.000;2023-03-21T03:57:19;95850.72;;;5.31;100.00
56038;BME280;41907;47.848;9.000;2023-03-21T03:59:45;95848.84;;;5.37;100.00
56038;BME280;41907;47.848;9.000;2023-03-21T04:02:11;95851.47;;;5.42;100.00
56038;BME280;41907;47.848;9.000;2023-03-21T04:04:37;95845.88;;;5.48;100.00
56038;BME280;41907;47.848;9.000;2023-03-21T04:07:03;95843.22;;;5.53;100.00
56038;BME280;41907;47.848;9.000;2023-03-21T04:09:30;95839.47;;;5.59;100.00
56038;BME280;41907;47.848;9.000;2023-03-21T04:11:56;95839.47;;;5.59;100.00
56038;BME280;41907;47.848;9.000;2023-03-21T04:14:23;95841.84;;;5.61;100.00
56038;BME280;41907;47.848;9.000;2023-03-21T04:16:48;95845.56;;;5.60;100.00
56038;BME280;41907;47.848;9.000;2023-03-21T04:19:14;95839.47;;;5.65;100.00
56038;BME280;41907;47.848;9.000;2023-03-21T04:21:40;95828.41;;;5.52;100.00
56038;BME280;41907;47.848;9.000;2023-03-21T04:24:06;95831.09;;;5.42;100.00
56038;BME280;41907;47.848;9.000;2023-03-21T04:26:32;95834.56;;;5.38;100.00
56038;BME280;41907;47.848;9.000;2023-03-21T04:28:59;95835.63;;;5.37;100.00
56038;BME280;41907;47.848;9.000;2023-03-21T04:31:26;95837.50;;;5.36;100.00
56038;BME280;41907;47.848;9.000;2023-03-21T04:33:55;95837.97;;;5.43;100.00
56038;BME280;41907;47.848;9.000;2023-03-21T04:36:26;95841.31;;;5.59;100.00
56038;BME280;41907;47.848;9.000;2023-03-21T04:38:55;95846.88;;;5.63;100.00
56038;BME280;41907;47.848;9.000;2023-03-21T04:41:26;95849.75;;;5.71;100.00
56038;BME280;41907;47.848;9.000;2023-03-21T04:43:51;95857.13;;;5.74;100.00
56038;BME280;41907;47.848;9.000;2023-03-21T04:46:17;95850.47;;;5.82;100.00
56038;BME280;41907;47.848;9.000;2023-03-21T04:48:42;95859.19;;;5.92;100.00
56038;BME280;41907;47.848;9.000;2023-03-21T04:51:07;95845.88;;;6.03;100.00
56038;BME280;41907;47.848;9.000;2023-03-21T04:53:33;95850.84;;;6.09;100.00
56038;BME280;41907;47.848;9.000;2023-03-21T04:55:58;95852.16;;;6.12;100.00
56038;BME280;41907;47.848;9.000;2023-03-21T04:58:24;95860.31;;;6.15;100.00
56038;BME280;41907;47.848;9.000;2023-03-21T05:00:50;95858.47;;;6.16;100.00
56038;BME280;41907;47.848;9.000;2023-03-21T05:03:17;95861.44;;;6.09;100.00
56038;BME280;41907;47.848;9.000;2023-03-21T05:05:45;95867.47;;;6.15;100.00
56038;BME280;41907;47.848;9.000;2023-03-21T05:08:11;95859.03;;;6.13;100.00
56038;BME280;41907;47.848;9.000;2023-03-21T05:10:37;95860.84;;;6.17;100.00
56038;BME280;41907;47.848;9.000;2023-03-21T05:13:02;95858.19;;;6.17;100.00
56038;BME280;41907;47.848;9.000;2023-03-21T05:15:28;95859.53;;;6.15;100.00
56038;BME280;41907;47.848;9.000;2023-03-21T05:17:53;95850.84;;;6.09;100.00
56038;BME280;41907;47.848;9.000;2023-03-21T05:20:19;95852.19;;;6.07;100.00
56038;BME280;41907;47.848;9.000;2023-03-21T05:22:45;95847.13;;;6.10;100.00
56038;BME280;41907;47.848;9.000;2023-03-21T05:25:14;95842.13;;;6.09;100.00
56038;BME280;41907;47.848;9.000;2023-03-21T05:27:42;95849.72;;;6.20;100.00
56038;BME280;41907;47.848;9.000;2023-03-21T05:30:15;95842.50;;;6.26;100.00
56038;BME280;41907;47.848;9.000;2023-03-21T05:32:41;95839.06;;;6.25;100.00
56038;BME280;41907;47.848;9.000;2023-03-21T05:35:07;95836.66;;;6.29;100.00
56038;BME280;41907;47.848;9.000;2023-03-21T05:37:32;95844.34;;;6.30;100.00
56038;BME280;41907;47.848;9.000;2023-03-21T05:39:57;95838.34;;;6.20;100.00
56038;BME280;41907;47.848;9.000;2023-03-21T05:42:24;95842.56;;;6.21;100.00
56038;BME280;41907;47.848;9.000;2023-03-21T05:44:50;95843.84;;;6.23;100.00
56038;BME280;41907;47.848;9.000;2023-03-21T05:47:16;95839.53;;;6.32;100.00
56038;BME280;41907;47.848;9.000;2023-03-21T05:49:43;95845.34;;;6.34;100.00
56038;BME280;41907;47.848;9.000;2023-03-21T05:52:09;95844.28;;;6.35;100.00
56038;BME280;41907;47.848;9.000;2023-03-21T05:54:35;95846.94;;;6.35;100.00
56038;BME280;41907;47.848;9.000;2023-03-21T05:57:02;95845.41;;;6.29;100.00
56038;BME280;41907;47.848;9.000;2023-03-21T05:59:27;95844.72;;;6.48;100.00
56038;BME280;41907;47.848;9.000;2023-03-21T06:01:52;95847.00;;;6.59;100.00
56038;BME280;41907;47.848;9.000;2023-03-21T06:04:18;95850.44;;;6.89;100.00
56038;BME280;41907;47.848;9.000;2023-03-21T06:06:43;95848.84;;;7.12;100.00
56038;BME280;41907;47.848;9.000;2023-03-21T06:09:09;95852.97;;;7.23;100.00
56038;BME280;41907;47.848;9.000;2023-03-21T06:11:36;95849.94;;;7.34;100.00
56038;BME280;41907;47.848;9.000;2023-03-21T06:14:02;95850.59;;;7.45;100.00
56038;BME280;41907;47.848;9.000;2023-03-21T06:16:28;95849.47;;;7.51;100.00
56038;BME280;41907;47.848;9.000;2023-03-21T06:18:54;95846.72;;;7.56;100.00
56038;BME280;41907;47.848;9.000;2023-03-21T06:21:20;95851.84;;;7.71;100.00
56038;BME280;41907;47.848;9.000;2023-03-21T06:23:46;95848.97;;;7.87;100.00
56038;BME280;41907;47.848;9.000;2023-03-21T06:26:12;95846.13;;;8.02;100.00
56038;BME280;41907;47.848;9.000;2023-03-21T06:28:38;95842.34;;;8.21;100.00
56038;BME280;41907;47.848;9.000;2023-03-21T06:31:03;95848.56;;;8.36;100.00
56038;BME280;41907;47.848;9.000;2023-03-21T06:33:29;95845.81;;;8.73;100.00
56038;BME280;41907;47.848;9.000;2023-03-21T06:35:56;95850.63;;;10.53;95.50
56038;BME280;41907;47.848;9.000;2023-03-21T06:38:22;95846.69;;;12.43;82.75
56038;BME280;41907;47.848;9.000;2023-03-21T06:40:47;95847.84;;;14.02;72.95
56038;BME280;41907;47.848;9.000;2023-03-21T06:43:13;95844.63;;;15.16;65.38
56038;BME280;41907;47.848;9.000;2023-03-21T06:45:40;95849.00;;;16.06;60.75
56038;BME280;41907;47.848;9.000;2023-03-21T06:48:05;95847.28;;;17.09;55.92
56038;BME280;41907;47.848;9.000;2023-03-21T06:50:31;95848.81;;;17.23;54.65
56038;BME280;41907;47.848;9.000;2023-03-21T06:52:56;95853.16;;;17.43;51.88
56038;BME280;41907;47.848;9.000;2023-03-21T06:55:24;95858.91;;;17.41;51.27
56038;BME280;41907;47.848;9.000;2023-03-21T06:57:55;95856.78;;;17.03;53.36
56038;BME280;41907;47.848;9.000;2023-03-21T07:00:21;95861.53;;;17.54;52.32
56038;BME280;41907;47.848;9.000;2023-03-21T07:02:47;95852.53;;;17.97;50.40
56038;BME280;41907;47.848;9.000;2023-03-21T07:05:13;95856.94;;;18.40;49.10
56038;BME280;41907;47.848;9.000;2023-03-21T07:07:39;95862.06;;;19.67;44.39
56038;BME280;41907;47.848;9.000;2023-03-21T07:10:06;95850.66;;;20.34;43.54
56038;BME280;41907;47.848;9.000;2023-03-21T07:12:32;95865.25;;;20.52;42.58
56038;BME280;41907;47.848;9.000;2023-03-21T07:15:00;95867.63;;;19.32;43.55
56038;BME280;41907;47.848;9.000;2023-03-21T07:17:25;95871.44;;;17.81;46.18
56038;BME280;41907;47.848;9.000;2023-03-21T07:19:51;95862.97;;;16.76;50.53
56038;BME280;41907;47.848;9.000;2023-03-21T07:22:16;95869.41;;;16.07;52.24
56038;BME280;41907;47.848;9.000;2023-03-21T07:24:42;95865.31;;;15.04;55.30
56038;BME280;41907;47.848;9.000;2023-03-21T07:27:07;95864.63;;;14.41;57.14
56038;BME280;41907;47.848;9.000;2023-03-21T07:29:33;95862.75;;;13.62;61.94
56038;BME280;41907;47.848;9.000;2023-03-21T07:31:58;95870.56;;;13.46;62.56
56038;BME280;41907;47.848;9.000;2023-03-21T07:34:24;95862.78;;;13.07;64.79
56038;BME280;41907;47.848;9.000;2023-03-21T07:36:51;95860.81;;;12.78;65.98
56038;BME280;41907;47.848;9.000;2023-03-21T07:39:16;95867.13;;;12.56;69.29
56038;BME280;41907;47.848;9.000;2023-03-21T07:41:42;95868.72;;;13.29;68.54
56038;BME280;41907;47.848;9.000;2023-03-21T07:44:07;95862.31;;;15.30;62.12
56038;BME280;41907;47.848;9.000;2023-03-21T07:46:32;95857.81;;;18.82;50.25
56038;BME280;41907;47.848;9.000;2023-03-21T07:48:57;95857.66;;;20.35;44.39
56038;BME280;41907;47.848;9.000;2023-03-21T07:51:23;95865.25;;;20.86;41.97
56038;BME280;41907;47.848;9.000;2023-03-21T07:53:49;95861.22;;;21.06;42.66
56038;BME280;41907;47.848;9.000;2023-03-21T07:56:14;95860.53;;;20.79;42.18
56038;BME280;41907;47.848;9.000;2023-03-21T07:58:40;95864.66;;;20.66;41.75
56038;BME280;41907;47.848;9.000;2023-03-21T08:01:05;95868.38;;;20.54;41.94
56038;BME280;41907;47.848;9.000;2023-03-21T08:03:30;95867.41;;;19.41;42.93
56038;BME280;41907;47.848;9.000;2023-03-21T08:05:58;95863.13;;;20.38;42.62
56038;BME280;41907;47.848;9.000;2023-03-21T08:08:25;95862.97;;;21.65;39.55
56038;BME280;41907;47.848;9.000;2023-03-21T08:10:50;95866.91;;;21.71;38.67
56038;BME280;41907;47.848;9.000;2023-03-21T08:13:16;95857.97;;;21.67;38.49
56038;BME280;41907;47.848;9.000;2023-03-21T08:15:41;95860.03;;;21.84;38.22
56038;BME280;41907;47.848;9.000;2023-03-21T08:18:07;95864.66;;;19.60;41.37
56038;BME280;41907;47.848;9.000;2023-03-21T08:20:33;95868.13;;;18.96;42.65
56038;BME280;41907;47.848;9.000;2023-03-21T08:22:58;95862.97;;;18.68;43.82
56038;BME280;41907;47.848;9.000;2023-03-21T08:25:23;95858.16;;;17.72;46.69
56038;BME280;41907;47.848;9.000;2023-03-21T08:27:49;95850.81;;;17.89;46.16
56038;BME280;41907;47.848;9.000;2023-03-21T08:30:18;95857.22;;;18.00;45.39
56038;BME280;41907;47.848;9.000;2023-03-21T08:32:44;95858.94;;;17.73;46.36
56038;BME280;41907;47.848;9.000;2023-03-21T08:35:11;95855.66;;;18.34;45.51
56038;BME280;41907;47.848;9.000;2023-03-21T08:37:38;95854.13;;;19.55;43.04
56038;BME280;41907;47.848;9.000;2023-03-21T08:40:06;95853.97;;;21.54;39.90
56038;BME280;41907;47.848;9.000;2023-03-21T08:42:33;95859.69;;;23.73;35.95
56038;BME280;41907;47.848;9.000;2023-03-21T08:44:59;95855.66;;;24.70;33.15
56038;BME280;41907;47.848;9.000;2023-03-21T08:47:24;95854.22;;;25.28;32.38
56038;BME280;41907;47.848;9.000;2023-03-21T08:49:50;95868.22;;;24.25;33.48
56038;BME280;41907;47.848;9.000;2023-03-21T08:52:15;95858.72;;;24.72;32.61
56038;BME280;41907;47.848;9.000;2023-03-21T08:54:40;95859.06;;;25.58;32.20
56038;BME280;41907;47.848;9.000;2023-03-21T08:57:06;95860.81;;;25.34;32.00
56038;BME280;41907;47.848;9.000;2023-03-21T08:59:33;95853.22;;;24.87;32.85
56038;BME280;41907;47.848;9.000;2023-03-21T09:01:58;95848.31;;;24.53;33.06
56038;BME280;41907;47.848;9.000;2023-03-21T09:04:24;95854.22;;;23.56;34.60
56038;BME280;41907;47.848;9.000;2023-03-21T09:06:50;95843.72;;;23.90;34.10
56038;BME280;41907;47.848;9.000;2023-03-21T09:09:16;95851.72;;;24.78;32.84
56038;BME280;41907;47.848;9.000;2023-03-21T09:11:42;95842.56;;;25.20;31.67
56038;BME280;41907;47.848;9.000;2023-03-21T09:14:08;95848.28;;;24.60;31.51
56038;BME280;41907;47.848;9.000;2023-03-21T09:16:33;95853.84;;;23.93;33.92
56038;BME280;41907;47.848;9.000;2023-03-21T09:18:59;95849.13;;;24.25;32.92
56038;BME280;41907;47.848;9.000;2023-03-21T09:21:26;95850.63;;;23.13;34.70
56038;BME280;41907;47.848;9.000;2023-03-21T09:23:52;95854.19;;;24.37;32.93
56038;BME280;41907;47.848;9.000;2023-03-21T09:26:21;95854.22;;;24.05;34.18
56038;BME280;41907;47.848;9.000;2023-03-21T09:28:48;95850.88;;;24.92;32.83
56038;BME280;41907;47.848;9.000;2023-03-21T09:31:15;95850.94;;;24.81;32.37
56038;BME280;41907;47.848;9.000;2023-03-21T09:33:43;95846.78;;;24.38;32.52
56038;BME280;41907;47.848;9.000;2023-03-21T09:36:10;95848.38;;;24.14;32.45
56038;BME280;41907;47.848;9.000;2023-03-21T09:38:40;95854.25;;;23.77;33.34
56038;BME280;41907;47.848;9.000;2023-03-21T09:49:34;95850.69;;;24.08;33.20
56038;BME280;41907;47.848;9.000;2023-03-21T09:52:10;95849.50;;;23.31;34.78
56038;BME280;41907;47.848;9.000;2023-03-21T09:54:40;95854.41;;;22.80;35.57
56038;BME280;41907;47.848;9.000;2023-03-21T10:00:00;95848.84;;;22.51;36.76
56038;BME280;41907;47.848;9.000;2023-03-21T10:02:37;95848.28;;;21.70;36.70
56038;BME280;41907;47.848;9.000;2023-03-21T10:07:46;95846.50;;;20.70;38.48
56038;BME280;41907;47.848;9.000;2023-03-21T10:10:22;95847.28;;;18.97;43.46
56038;BME280;41907;47.848;9.000;2023-03-21T10:12:51;95841.25;;;19.98;40.92
56038;BME280;41907;47.848;9.000;2023-03-21T10:15:19;95840.28;;;20.36;40.37
56038;BME280;41907;47.848;9.000;2023-03-21T10:18:00;95839.50;;;20.39;41.71
56038;BME280;41907;47.848;9.000;2023-03-21T10:20:32;95840.81;;;20.22;39.95
56038;BME280;41907;47.848;9.000;2023-03-21T10:23:00;95832.78;;;20.56;40.94
56038;BME280;41907;47.848;9.000;2023-03-21T10:27:55;95830.47;;;20.91;40.54
56038;BME280;41907;47.848;9.000;2023-03-21T10:30:29;95833.38;;;21.09;39.37
56038;BME280;41907;47.848;9.000;2023-03-21T10:32:58;95837.91;;;20.64;39.32
56038;BME280;41907;47.848;9.000;2023-03-21T10:35:29;95825.63;;;20.14;40.96
56038;BME280;41907;47.848;9.000;2023-03-21T10:37:58;95829.69;;;20.27;40.56
56038;BME280;41907;47.848;9.000;2023-03-21T10:40:23;95818.72;;;20.20;40.59
56038;BME280;41907;47.848;9.000;2023-03-21T10:42:49;95827.94;;;18.94;43.13
56038;BME280;41907;47.848;9.000;2023-03-21T10:45:17;95814.00;;;16.86;47.72
56038;BME280;41907;47.848;9.000;2023-03-21T10:47:46;95821.63;;;16.84;49.74
56038;BME280;41907;47.848;9.000;2023-03-21T10:50:15;95812.47;;;17.64;48.04
56038;BME280;41907;47.848;9.000;2023-03-21T10:52:52;95816.44;;;18.20;46.21
56038;BME280;41907;47.848;9.000;2023-03-21T10:55:32;95826.53;;;18.81;45.63
56038;BME280;41907;47.848;9.000;2023-03-21T10:58:02;95813.88;;;18.85;45.45
56038;BME280;41907;47.848;9.000;2023-03-21T11:00:33;95815.47;;;19.32;44.77
56038;BME280;41907;47.848;9.000;2023-03-21T11:03:00;95817.38;;;19.09;44.56
56038;BME280;41907;47.848;9.000;2023-03-21T11:05:36;95818.28;;;19.16;43.84
56038;BME280;41907;47.848;9.000;2023-03-21T11:08:11;95813.66;;;19.17;44.33
56038;BME280;41907;47.848;9.000;2023-03-21T11:13:25;95814.47;;;18.98;45.64
56038;BME280;41907;47.848;9.000;2023-03-21T11:15:53;95809.09;;;18.40;46.71
56038;BME280;41907;47.848;9.000;2023-03-21T11:18:21;95802.84;;;19.17;44.12
56038;BME280;41907;47.848;9.000;2023-03-21T11:21:01;95802.66;;;19.29;43.09
56038;BME280;41907;47.848;9.000;2023-03-21T11:23:29;95796.47;;;19.28;42.99
56038;BME280;41907;47.848;9.000;2023-03-21T11:25:57;95803.50;;;19.33;44.49
56038;BME280;41907;47.848;9.000;2023-03-21T11:28:26;95804.66;;;19.32;43.09
56038;BME280;41907;47.848;9.000;2023-03-21T11:30:59;95804.13;;;19.23;43.19
56038;BME280;41907;47.848;9.000;2023-03-21T11:33:36;95799.31;;;19.13;44.64
56038;BME280;41907;47.848;9.000;2023-03-21T11:36:31;95791.06;;;18.64;44.51
56038;BME280;41907;47.848;9.000;2023-03-21T11:39:03;95790.22;;;18.21;45.85
56038;BME280;41907;47.848;9.000;2023-03-21T11:41:39;95796.09;;;18.07;45.98
56038;BME280;41907;47.848;9.000;2023-03-21T11:44:05;95783.59;;;18.38;45.64
56038;BME280;41907;47.848;9.000;2023-03-21T11:46:31;95782.72;;;18.14;45.01
56038;BME280;41907;47.848;9.000;2023-03-21T11:49:04;95776.34;;;18.22;44.49
56038;BME280;41907;47.848;9.000;2023-03-21T11:54:10;95768.53;;;18.56;44.73
56038;BME280;41907;47.848;9.000;2023-03-21T11:56:48;95767.81;;;18.59;44.51
56038;BME280;41907;47.848;9.000;2023-03-21T12:07:26;95748.97;;;18.05;45.87
56038;BME280;41907;47.848;9.000;2023-03-21T12:12:53;95737.75;;;18.22;47.12
56038;BME280;41907;47.848;9.000;2023-03-21T12:31:27;95712.13;;;18.12;46.45
56038;BME280;41907;47.848;9.000;2023-03-21T12:39:59;95701.63;;;17.02;47.25
56038;BME280;41907;47.848;9.000;2023-03-21T12:45:26;95694.09;;;17.43;49.38
56038;BME280;41907;47.848;9.000;2023-03-21T12:48:08;95689.91;;;18.19;46.38
56038;BME280;41907;47.848;9.000;2023-03-21T12:50:37;95684.84;;;18.17;45.30
56038;BME280;41907;47.848;9.000;2023-03-21T12:55:50;95676.53;;;17.33;46.41
56038;BME280;41907;47.848;9.000;2023-03-21T12:58:19;95675.00;;;17.17;46.65
56038;BME280;41907;47.848;9.000;2023-03-21T13:00:57;95669.97;;;17.15;49.00
56038;BME280;41907;47.848;9.000;2023-03-21T13:03:30;95667.09;;;17.24;48.29
56038;BME280;41907;47.848;9.000;2023-03-21T13:06:00;95671.06;;;17.30;46.68
56038;BME280;41907;47.848;9.000;2023-03-21T13:08:34;95669.28;;;17.53;46.91
56038;BME280;41907;47.848;9.000;2023-03-21T13:11:02;95665.56;;;17.42;47.34
56038;BME280;41907;47.848;9.000;2023-03-21T13:16:34;95674.13;;;17.47;47.24
56038;BME280;41907;47.848;9.000;2023-03-21T13:21:36;95665.56;;;16.91;46.78
56038;BME280;41907;47.848;9.000;2023-03-21T13:27:02;95666.50;;;17.15;47.00
56038;BME280;41907;47.848;9.000;2023-03-21T13:29:47;95662.72;;;17.35;45.53
56038;BME280;41907;47.848;9.000;2023-03-21T13:35:18;95665.16;;;17.24;46.16
56038;BME280;41907;47.848;9.000;2023-03-21T13:37:49;95659.53;;;17.14;46.46
56038;BME280;41907;47.848;9.000;2023-03-21T13:42:51;95657.78;;;17.21;45.93
56038;BME280;41907;47.848;9.000;2023-03-21T13:45:28;95641.31;;;16.91;45.92
56038;BME280;41907;47.848;9.000;2023-03-21T13:47:57;95636.28;;;16.74;46.90
56038;BME280;41907;47.848;9.000;2023-03-21T13:50:29;95643.03;;;16.99;46.58
56038;BME280;41907;47.848;9.000;2023-03-21T13:55:30;95629.59;;;16.84;47.23
56038;BME280;41907;47.848;9.000;2023-03-21T14:01:12;95639.00;;;16.15;47.80
56038;BME280;41907;47.848;9.000;2023-03-21T14:03:38;95628.94;;;16.12;49.99
56038;BME280;41907;47.848;9.000;2023-03-21T14:06:05;95627.75;;;16.56;49.04
56038;BME280;41907;47.848;9.000;2023-03-21T14:08:34;95621.00;;;16.62;46.88
56038;BME280;41907;47.848;9.000;2023-03-21T14:11:03;95620.09;;;16.43;47.91
56038;BME280;41907;47.848;9.000;2023-03-21T14:13:30;95607.19;;;16.64;47.75
56038;BME280;41907;47.848;9.000;2023-03-21T14:16:00;95625.16;;;16.91;47.79
56038;BME280;41907;47.848;9.000;2023-03-21T14:18:29;95615.22;;;16.32;47.77
56038;BME280;41907;47.848;9.000;2023-03-21T14:20:56;95610.84;;;16.40;48.25
56038;BME280;41907;47.848;9.000;2023-03-21T14:23:23;95610.28;;;16.19;48.56
56038;BME280;41907;47.848;9.000;2023-03-21T14:25:49;95612.13;;;15.87;49.77
56038;BME280;41907;47.848;9.000;2023-03-21T14:28:20;95616.69;;;15.31;51.37
56038;BME280;41907;47.848;9.000;2023-03-21T14:30:53;95607.66;;;15.51;52.22
56038;BME280;41907;47.848;9.000;2023-03-21T14:33:27;95607.88;;;15.86;51.63
56038;BME280;41907;47.848;9.000;2023-03-21T14:36:03;95601.88;;;15.77;51.58
56038;BME280;41907;47.848;9.000;2023-03-21T14:38:34;95607.31;;;16.08;50.95
56038;BME280;41907;47.848;9.000;2023-03-21T14:41:00;95600.03;;;16.24;51.08
56038;BME280;41907;47.848;9.000;2023-03-21T14:43:26;95600.13;;;16.44;49.59
56038;BME280;41907;47.848;9.000;2023-03-21T14:45:55;95601.53;;;16.22;50.40
56038;BME280;41907;47.848;9.000;2023-03-21T14:48:32;95596.84;;;16.19;50.18
56038;BME280;41907;47.848;9.000;2023-03-21T14:51:09;95594.13;;;16.03;50.12